Discovery — 3FII9 — position and weather

sailwx.info

Track history (hours):
 
Tides and Currents Weather Stations Pressure Air Temp Water Temp Dewpoint Dewpoint Depression Visibility Wind Speed Wind Dir Waves Ship Positions

Discovery

Operator: V Ships Leisure SAM

Last reported at 2019-Mar-26 16:57 UTC. Time now 2019-Apr-25 10:46 UTC.
Position N 09°11' W 079°52'.
Warning: this ship's position is 29 days out of date.

Length 177 m; draft 10.2 m.

Type: Cargo ship. MMSI: 353389000.

Date/timePositionNaut miles runAvg speedWind from/ knotsBaromVisibWave heightAir tempDewpointWater temp
2019-Mar-26 16:57N 09°11' W 079°52'3 7.1
2019-Mar-26 16:30N 09°12' W 079°54'1 1.5
2019-Mar-26 15:55N 09°12' W 079°55'0 0.1
2019-Mar-26 15:30N 09°12' W 079°55'0 0.0
2019-Mar-26 15:00N 09°12' W 079°55'0 0.2
2019-Mar-26 14:30N 09°12' W 079°55'1 2.2
2019-Mar-26 14:00N 09°13' W 079°56'2 4.8
2019-Mar-26 13:30N 09°16' W 079°55'1 1.2
2019-Mar-26 13:00N 09°16' W 079°55'0 0.3
2019-Mar-26 12:30N 09°16' W 079°55'0 0.3
2019-Mar-26 12:00N 09°17' W 079°55'0 0.5
2019-Mar-26 11:30N 09°17' W 079°55'1 1.3
2019-Mar-26 11:00N 09°18' W 079°55'4 7.0
2019-Mar-26 10:30N 09°21' W 079°55'3 5.4
2019-Mar-26 10:00N 09°24' W 079°55'3 6.2
2019-Mar-26 09:30N 09°27' W 079°56'1 2.5
2019-Mar-26 08:59N 09°28' W 079°57'0 0.0
2019-Mar-26 08:17N 09°28' W 079°57'0 0.0
2019-Mar-26 07:56N 09°28' W 079°57'0 0.0
2019-Mar-26 07:23N 09°28' W 079°57'0 0.0
2019-Mar-26 06:35N 09°28' W 079°57'0 0.0
2019-Mar-26 05:53N 09°28' W 079°57'0 0.0
2019-Mar-26 03:26N 09°28' W 079°57'1 2.1
2019-Mar-26 03:00N 09°28' W 079°56'5 9.2
2019-Mar-26 02:30N 09°32' W 079°54'611.1
2019-Mar-26 02:00N 09°38' W 079°53'  
2019-Mar-21 05:29N 26°51' W 095°55'812.8
2019-Mar-21 04:52N 26°58' W 095°59'813.1
2019-Mar-21 04:15N 27°06' W 096°02'313.2
2019-Mar-21 04:00N 27°09' W 096°04'713.3
2019-Mar-21 03:30N 27°15' W 096°07'713.3
2019-Mar-21 02:59N 27°21' W 096°10'1613.1
2019-Mar-21 01:46N 27°29' W 096°25'513.2
2019-Mar-21 01:23N 27°32' W 096°30'  
2019-Mar-18 02:25N 28°41' W 095°13'712.8
2019-Mar-18 01:55N 28°45' W 095°07'512.7
2019-Mar-18 01:30N 28°47' W 095°02'612.6
2019-Mar-18 01:00N 28°51' W 094°56'612.7
2019-Mar-18 00:30N 28°54' W 094°49'612.4
2019-Mar-18 00:00N 28°57' W 094°44'612.0
2019-Mar-17 23:30N 29°01' W 094°38'611.9
2019-Mar-17 23:00N 29°04' W 094°32'9 8.1
2019-Mar-17 21:55N 29°13' W 094°33'510.9
2019-Mar-17 21:25N 29°17' W 094°36'4 9.7
2019-Mar-17 21:00N 29°20' W 094°40'5 8.9
2019-Mar-17 20:29N 29°21' W 094°45'4 8.5
2019-Mar-17 20:00N 29°23' W 094°49'4 8.8
2019-Mar-17 19:30N 29°27' W 094°51'5 9.3
2019-Mar-17 19:00N 29°31' W 094°53'5 9.8
2019-Mar-17 18:30N 29°36' W 094°56'5 9.5
2019-Mar-17 18:00N 29°40' W 094°59'4 7.9
2019-Mar-17 17:30N 29°43' W 095°01'4 7.5
2019-Mar-17 16:58N 29°46' W 095°05'3 6.0
2019-Mar-17 16:26N 29°44' W 095°08'2 5.4
2019-Mar-17 16:00N 29°45' W 095°10'  
Track history (hours):
 
Tides and Currents Weather Stations Pressure Air Temp Water Temp Dewpoint Dewpoint Depression Visibility Wind Speed Wind Dir Waves Ship Positions

Discovery

Operator: V Ships Leisure SAM

Last reported at 2019-Mar-26 16:57 UTC. Time now 2019-Apr-25 10:46 UTC.
Position N 09°11' W 079°52'.
Warning: this ship's position is 29 days out of date.

Length 177 m; draft 10.2 m.

Type: Cargo ship. MMSI: 353389000.

Date/timePositionNaut miles runAvg speedWind from/ knotsBaromVisibWave heightAir tempDewpointWater temp
2019-Mar-26 16:57N 09°11' W 079°52'3 7.1
2019-Mar-26 16:30N 09°12' W 079°54'1 1.5
2019-Mar-26 15:55N 09°12' W 079°55'0 0.1
2019-Mar-26 15:30N 09°12' W 079°55'0 0.0
2019-Mar-26 15:00N 09°12' W 079°55'0 0.2
2019-Mar-26 14:30N 09°12' W 079°55'1 2.2
2019-Mar-26 14:00N 09°13' W 079°56'2 4.8
2019-Mar-26 13:30N 09°16' W 079°55'1 1.2
2019-Mar-26 13:00N 09°16' W 079°55'0 0.3
2019-Mar-26 12:30N 09°16' W 079°55'0 0.3
2019-Mar-26 12:00N 09°17' W 079°55'0 0.5
2019-Mar-26 11:30N 09°17' W 079°55'1 1.3
2019-Mar-26 11:00N 09°18' W 079°55'4 7.0
2019-Mar-26 10:30N 09°21' W 079°55'3 5.4
2019-Mar-26 10:00N 09°24' W 079°55'3 6.2
2019-Mar-26 09:30N 09°27' W 079°56'1 2.5
2019-Mar-26 08:59N 09°28' W 079°57'0 0.0
2019-Mar-26 08:17N 09°28' W 079°57'0 0.0
2019-Mar-26 07:56N 09°28' W 079°57'0 0.0
2019-Mar-26 07:23N 09°28' W 079°57'0 0.0
2019-Mar-26 06:35N 09°28' W 079°57'0 0.0
2019-Mar-26 05:53N 09°28' W 079°57'0 0.0
2019-Mar-26 03:26N 09°28' W 079°57'1 2.1
2019-Mar-26 03:00N 09°28' W 079°56'5 9.2
2019-Mar-26 02:30N 09°32' W 079°54'611.1
2019-Mar-26 02:00N 09°38' W 079°53'  
2019-Mar-21 05:29N 26°51' W 095°55'812.8
2019-Mar-21 04:52N 26°58' W 095°59'813.1
2019-Mar-21 04:15N 27°06' W 096°02'313.2
2019-Mar-21 04:00N 27°09' W 096°04'713.3
2019-Mar-21 03:30N 27°15' W 096°07'713.3
2019-Mar-21 02:59N 27°21' W 096°10'1613.1
2019-Mar-21 01:46N 27°29' W 096°25'513.2
2019-Mar-21 01:23N 27°32' W 096°30'  
2019-Mar-18 02:25N 28°41' W 095°13'712.8
2019-Mar-18 01:55N 28°45' W 095°07'512.7
2019-Mar-18 01:30N 28°47' W 095°02'612.6
2019-Mar-18 01:00N 28°51' W 094°56'612.7
2019-Mar-18 00:30N 28°54' W 094°49'612.4
2019-Mar-18 00:00N 28°57' W 094°44'612.0
2019-Mar-17 23:30N 29°01' W 094°38'611.9
2019-Mar-17 23:00N 29°04' W 094°32'9 8.1
2019-Mar-17 21:55N 29°13' W 094°33'510.9
2019-Mar-17 21:25N 29°17' W 094°36'4 9.7
2019-Mar-17 21:00N 29°20' W 094°40'5 8.9
2019-Mar-17 20:29N 29°21' W 094°45'4 8.5
2019-Mar-17 20:00N 29°23' W 094°49'4 8.8
2019-Mar-17 19:30N 29°27' W 094°51'5 9.3
2019-Mar-17 19:00N 29°31' W 094°53'5 9.8
2019-Mar-17 18:30N 29°36' W 094°56'5 9.5
2019-Mar-17 18:00N 29°40' W 094°59'4 7.9
2019-Mar-17 17:30N 29°43' W 095°01'4 7.5
2019-Mar-17 16:58N 29°46' W 095°05'3 6.0
2019-Mar-17 16:26N 29°44' W 095°08'2 5.4
2019-Mar-17 16:00N 29°45' W 095°10'  

Dump ship's entire track history